sensor_id;sensor_type;location;lat;lon;timestamp;P1;durP1;ratioP1;P2;durP2;ratioP2
49910;SDS011;35803;53.096;5.844;2024-03-29T00:01:58;1.02;;;0.70;;
49910;SDS011;35803;53.096;5.844;2024-03-29T00:04:44;1.15;;;0.70;;
49910;SDS011;35803;53.096;5.844;2024-03-29T00:07:29;1.30;;;0.80;;
49910;SDS011;35803;53.096;5.844;2024-03-29T00:10:15;4.82;;;0.80;;
49910;SDS011;35803;53.096;5.844;2024-03-29T00:13:01;2.00;;;0.98;;
49910;SDS011;35803;53.096;5.844;2024-03-29T00:15:46;2.47;;;0.82;;
49910;SDS011;35803;53.096;5.844;2024-03-29T00:18:32;3.50;;;1.05;;
49910;SDS011;35803;53.096;5.844;2024-03-29T00:21:18;3.90;;;1.05;;
49910;SDS011;35803;53.096;5.844;2024-03-29T00:24:04;2.90;;;1.02;;
49910;SDS011;35803;53.096;5.844;2024-03-29T00:26:50;8.50;;;2.10;;
49910;SDS011;35803;53.096;5.844;2024-03-29T00:29:35;2.22;;;1.08;;
49910;SDS011;35803;53.096;5.844;2024-03-29T00:32:22;1.42;;;0.80;;
49910;SDS011;35803;53.096;5.844;2024-03-29T00:35:08;5.05;;;1.48;;
49910;SDS011;35803;53.096;5.844;2024-03-29T00:37:53;6.30;;;1.50;;
49910;SDS011;35803;53.096;5.844;2024-03-29T00:40:39;3.33;;;1.20;;
49910;SDS011;35803;53.096;5.844;2024-03-29T00:43:25;2.28;;;0.80;;
49910;SDS011;35803;53.096;5.844;2024-03-29T00:46:11;2.97;;;0.90;;
49910;SDS011;35803;53.096;5.844;2024-03-29T00:48:56;1.65;;;0.60;;
49910;SDS011;35803;53.096;5.844;2024-03-29T00:51:42;1.90;;;0.90;;
49910;SDS011;35803;53.096;5.844;2024-03-29T00:54:28;4.68;;;0.90;;
49910;SDS011;35803;53.096;5.844;2024-03-29T00:57:13;2.53;;;1.05;;
49910;SDS011;35803;53.096;5.844;2024-03-29T01:00:01;1.55;;;0.80;;
49910;SDS011;35803;53.096;5.844;2024-03-29T01:02:46;5.47;;;1.20;;
49910;SDS011;35803;53.096;5.844;2024-03-29T01:05:32;6.70;;;1.00;;
49910;SDS011;35803;53.096;5.844;2024-03-29T01:08:18;2.33;;;0.90;;
49910;SDS011;35803;53.096;5.844;2024-03-29T01:11:03;3.58;;;1.10;;
49910;SDS011;35803;53.096;5.844;2024-03-29T01:13:49;1.45;;;0.80;;
49910;SDS011;35803;53.096;5.844;2024-03-29T01:16:35;4.22;;;0.90;;
49910;SDS011;35803;53.096;5.844;2024-03-29T01:19:20;3.50;;;0.90;;
49910;SDS011;35803;53.096;5.844;2024-03-29T01:22:06;6.47;;;0.90;;
49910;SDS011;35803;53.096;5.844;2024-03-29T01:24:53;3.60;;;0.70;;
49910;SDS011;35803;53.096;5.844;2024-03-29T01:27:38;2.65;;;0.90;;
49910;SDS011;35803;53.096;5.844;2024-03-29T01:30:24;3.00;;;1.02;;
49910;SDS011;35803;53.096;5.844;2024-03-29T01:33:10;2.95;;;0.82;;
49910;SDS011;35803;53.096;5.844;2024-03-29T01:35:55;1.10;;;0.50;;
49910;SDS011;35803;53.096;5.844;2024-03-29T01:38:41;3.40;;;1.38;;
49910;SDS011;35803;53.096;5.844;2024-03-29T01:41:27;3.78;;;1.00;;
49910;SDS011;35803;53.096;5.844;2024-03-29T01:44:13;4.03;;;1.40;;
49910;SDS011;35803;53.096;5.844;2024-03-29T01:46:59;5.53;;;1.20;;
49910;SDS011;35803;53.096;5.844;2024-03-29T01:49:45;1.83;;;1.00;;
49910;SDS011;35803;53.096;5.844;2024-03-29T01:52:31;2.42;;;0.70;;
49910;SDS011;35803;53.096;5.844;2024-03-29T01:55:17;2.78;;;0.73;;
49910;SDS011;35803;53.096;5.844;2024-03-29T01:58:03;2.45;;;0.82;;
49910;SDS011;35803;53.096;5.844;2024-03-29T02:00:51;3.92;;;1.02;;
49910;SDS011;35803;53.096;5.844;2024-03-29T02:03:38;3.30;;;1.10;;
49910;SDS011;35803;53.096;5.844;2024-03-29T02:06:24;3.20;;;0.93;;
49910;SDS011;35803;53.096;5.844;2024-03-29T02:09:10;3.00;;;0.70;;
49910;SDS011;35803;53.096;5.844;2024-03-29T02:11:56;2.92;;;0.80;;
49910;SDS011;35803;53.096;5.844;2024-03-29T02:14:42;3.45;;;1.10;;
49910;SDS011;35803;53.096;5.844;2024-03-29T02:17:28;4.07;;;0.90;;
49910;SDS011;35803;53.096;5.844;2024-03-29T02:20:13;2.42;;;0.70;;
49910;SDS011;35803;53.096;5.844;2024-03-29T02:23:06;4.47;;;0.88;;
49910;SDS011;35803;53.096;5.844;2024-03-29T02:25:54;2.70;;;0.90;;
49910;SDS011;35803;53.096;5.844;2024-03-29T02:28:40;1.90;;;0.60;;
49910;SDS011;35803;53.096;5.844;2024-03-29T02:31:26;2.38;;;0.80;;
49910;SDS011;35803;53.096;5.844;2024-03-29T02:34:11;1.13;;;0.60;;
49910;SDS011;35803;53.096;5.844;2024-03-29T02:36:57;1.45;;;0.90;;
49910;SDS011;35803;53.096;5.844;2024-03-29T02:39:43;2.72;;;0.80;;
49910;SDS011;35803;53.096;5.844;2024-03-29T02:42:28;3.97;;;0.70;;
49910;SDS011;35803;53.096;5.844;2024-03-29T02:45:14;3.13;;;0.80;;
49910;SDS011;35803;53.096;5.844;2024-03-29T02:48:01;2.05;;;0.90;;
49910;SDS011;35803;53.096;5.844;2024-03-29T02:50:46;3.13;;;0.80;;
49910;SDS011;35803;53.096;5.844;2024-03-29T02:53:32;4.53;;;0.80;;
49910;SDS011;35803;53.096;5.844;2024-03-29T02:56:18;2.78;;;0.90;;
49910;SDS011;35803;53.096;5.844;2024-03-29T02:59:06;3.38;;;0.73;;
49910;SDS011;35803;53.096;5.844;2024-03-29T03:01:52;1.98;;;0.70;;
49910;SDS011;35803;53.096;5.844;2024-03-29T03:04:38;3.67;;;0.75;;
49910;SDS011;35803;53.096;5.844;2024-03-29T03:07:24;3.90;;;0.80;;
49910;SDS011;35803;53.096;5.844;2024-03-29T03:10:28;2.75;;;0.65;;
49910;SDS011;35803;53.096;5.844;2024-03-29T03:13:32;2.15;;;0.70;;
49910;SDS011;35803;53.096;5.844;2024-03-29T03:16:18;3.20;;;0.80;;
49910;SDS011;35803;53.096;5.844;2024-03-29T03:19:03;3.47;;;0.90;;
49910;SDS011;35803;53.096;5.844;2024-03-29T03:21:50;2.75;;;1.00;;
49910;SDS011;35803;53.096;5.844;2024-03-29T03:24:36;2.25;;;0.90;;
49910;SDS011;35803;53.096;5.844;2024-03-29T03:27:21;5.63;;;0.90;;
49910;SDS011;35803;53.096;5.844;2024-03-29T03:30:08;2.97;;;0.95;;
49910;SDS011;35803;53.096;5.844;2024-03-29T03:32:55;0.85;;;0.80;;
49910;SDS011;35803;53.096;5.844;2024-03-29T03:35:41;2.20;;;0.70;;
49910;SDS011;35803;53.096;5.844;2024-03-29T03:38:27;4.13;;;0.75;;
49910;SDS011;35803;53.096;5.844;2024-03-29T03:41:13;1.88;;;0.70;;
49910;SDS011;35803;53.096;5.844;2024-03-29T03:43:59;3.75;;;0.70;;
49910;SDS011;35803;53.096;5.844;2024-03-29T03:46:44;3.00;;;0.98;;
49910;SDS011;35803;53.096;5.844;2024-03-29T03:49:30;1.15;;;0.60;;
49910;SDS011;35803;53.096;5.844;2024-03-29T03:52:16;3.53;;;0.90;;
49910;SDS011;35803;53.096;5.844;2024-03-29T03:55:02;0.93;;;0.80;;
49910;SDS011;35803;53.096;5.844;2024-03-29T03:57:47;2.85;;;0.70;;
49910;SDS011;35803;53.096;5.844;2024-03-29T04:00:33;2.88;;;0.77;;
49910;SDS011;35803;53.096;5.844;2024-03-29T04:03:19;3.63;;;0.90;;
49910;SDS011;35803;53.096;5.844;2024-03-29T04:06:05;3.70;;;0.77;;
49910;SDS011;35803;53.096;5.844;2024-03-29T04:08:51;1.98;;;0.60;;
49910;SDS011;35803;53.096;5.844;2024-03-29T04:11:37;2.17;;;0.90;;
49910;SDS011;35803;53.096;5.844;2024-03-29T04:14:23;4.97;;;0.88;;
49910;SDS011;35803;53.096;5.844;2024-03-29T04:17:08;1.55;;;0.80;;
49910;SDS011;35803;53.096;5.844;2024-03-29T04:19:54;4.70;;;0.82;;
49910;SDS011;35803;53.096;5.844;2024-03-29T04:22:40;1.73;;;1.00;;
49910;SDS011;35803;53.096;5.844;2024-03-29T04:25:25;1.33;;;0.52;;
49910;SDS011;35803;53.096;5.844;2024-03-29T04:28:11;2.67;;;1.10;;
49910;SDS011;35803;53.096;5.844;2024-03-29T04:30:57;2.42;;;0.70;;
49910;SDS011;35803;53.096;5.844;2024-03-29T04:33:44;1.52;;;0.85;;
49910;SDS011;35803;53.096;5.844;2024-03-29T04:36:30;3.08;;;0.80;;
49910;SDS011;35803;53.096;5.844;2024-03-29T04:39:15;3.13;;;0.90;;
49910;SDS011;35803;53.096;5.844;2024-03-29T04:42:01;3.35;;;0.93;;
49910;SDS011;35803;53.096;5.844;2024-03-29T04:44:47;0.43;;;0.43;;
49910;SDS011;35803;53.096;5.844;2024-03-29T04:47:33;2.50;;;0.70;;
49910;SDS011;35803;53.096;5.844;2024-03-29T04:50:18;2.88;;;0.80;;
49910;SDS011;35803;53.096;5.844;2024-03-29T04:53:04;1.13;;;0.80;;
49910;SDS011;35803;53.096;5.844;2024-03-29T04:55:56;3.22;;;1.17;;
49910;SDS011;35803;53.096;5.844;2024-03-29T04:58:43;4.07;;;0.60;;
49910;SDS011;35803;53.096;5.844;2024-03-29T05:01:31;0.98;;;0.57;;
49910;SDS011;35803;53.096;5.844;2024-03-29T05:04:17;1.40;;;0.90;;
49910;SDS011;35803;53.096;5.844;2024-03-29T05:07:04;2.00;;;0.90;;
49910;SDS011;35803;53.096;5.844;2024-03-29T05:09:49;1.80;;;0.70;;
49910;SDS011;35803;53.096;5.844;2024-03-29T05:12:35;2.03;;;0.70;;
49910;SDS011;35803;53.096;5.844;2024-03-29T05:15:22;2.38;;;1.00;;
49910;SDS011;35803;53.096;5.844;2024-03-29T05:18:08;1.25;;;0.85;;
49910;SDS011;35803;53.096;5.844;2024-03-29T05:20:54;1.65;;;0.60;;
49910;SDS011;35803;53.096;5.844;2024-03-29T05:23:40;1.35;;;0.80;;
49910;SDS011;35803;53.096;5.844;2024-03-29T05:26:25;1.60;;;0.88;;
49910;SDS011;35803;53.096;5.844;2024-03-29T05:29:11;2.53;;;0.70;;
49910;SDS011;35803;53.096;5.844;2024-03-29T05:31:57;3.58;;;0.75;;
49910;SDS011;35803;53.096;5.844;2024-03-29T05:34:42;1.00;;;0.70;;
49910;SDS011;35803;53.096;5.844;2024-03-29T05:37:28;1.85;;;0.68;;
49910;SDS011;35803;53.096;5.844;2024-03-29T05:40:14;2.67;;;0.65;;
49910;SDS011;35803;53.096;5.844;2024-03-29T05:42:59;3.97;;;0.90;;
49910;SDS011;35803;53.096;5.844;2024-03-29T05:45:45;2.83;;;0.93;;
49910;SDS011;35803;53.096;5.844;2024-03-29T05:48:31;1.10;;;0.98;;
49910;SDS011;35803;53.096;5.844;2024-03-29T05:51:17;2.28;;;0.68;;
49910;SDS011;35803;53.096;5.844;2024-03-29T05:54:03;2.08;;;0.63;;
49910;SDS011;35803;53.096;5.844;2024-03-29T05:56:49;2.25;;;0.57;;
49910;SDS011;35803;53.096;5.844;2024-03-29T05:59:35;3.63;;;0.90;;
49910;SDS011;35803;53.096;5.844;2024-03-29T06:02:20;0.95;;;0.70;;
49910;SDS011;35803;53.096;5.844;2024-03-29T06:05:06;3.00;;;0.65;;
49910;SDS011;35803;53.096;5.844;2024-03-29T06:07:52;2.25;;;0.70;;
49910;SDS011;35803;53.096;5.844;2024-03-29T06:10:38;1.77;;;0.70;;
49910;SDS011;35803;53.096;5.844;2024-03-29T06:13:24;1.85;;;0.70;;
49910;SDS011;35803;53.096;5.844;2024-03-29T06:16:35;1.15;;;0.50;;
49910;SDS011;35803;53.096;5.844;2024-03-29T06:19:39;1.35;;;0.70;;
49910;SDS011;35803;53.096;5.844;2024-03-29T06:22:25;2.20;;;1.02;;
49910;SDS011;35803;53.096;5.844;2024-03-29T06:25:11;1.55;;;0.77;;
49910;SDS011;35803;53.096;5.844;2024-03-29T06:27:57;1.08;;;0.68;;
49910;SDS011;35803;53.096;5.844;2024-03-29T06:30:42;1.85;;;0.63;;
49910;SDS011;35803;53.096;5.844;2024-03-29T06:33:28;0.88;;;0.60;;
49910;SDS011;35803;53.096;5.844;2024-03-29T06:36:14;1.30;;;0.63;;
49910;SDS011;35803;53.096;5.844;2024-03-29T06:39:00;1.05;;;0.60;;
49910;SDS011;35803;53.096;5.844;2024-03-29T06:41:45;1.95;;;0.70;;
49910;SDS011;35803;53.096;5.844;2024-03-29T06:44:31;2.85;;;0.82;;
49910;SDS011;35803;53.096;5.844;2024-03-29T06:47:17;2.60;;;0.63;;
49910;SDS011;35803;53.096;5.844;2024-03-29T06:50:03;1.40;;;0.60;;
49910;SDS011;35803;53.096;5.844;2024-03-29T06:52:49;0.80;;;0.50;;
49910;SDS011;35803;53.096;5.844;2024-03-29T06:55:35;1.52;;;0.70;;
49910;SDS011;35803;53.096;5.844;2024-03-29T06:58:22;2.22;;;0.70;;
49910;SDS011;35803;53.096;5.844;2024-03-29T07:01:08;0.50;;;0.50;;
49910;SDS011;35803;53.096;5.844;2024-03-29T07:03:54;1.98;;;0.50;;
49910;SDS011;35803;53.096;5.844;2024-03-29T07:06:40;2.40;;;0.50;;
49910;SDS011;35803;53.096;5.844;2024-03-29T07:09:27;3.55;;;0.70;;
49910;SDS011;35803;53.096;5.844;2024-03-29T07:12:14;1.48;;;0.60;;
49910;SDS011;35803;53.096;5.844;2024-03-29T07:14:59;3.67;;;0.55;;
49910;SDS011;35803;53.096;5.844;2024-03-29T07:17:45;1.90;;;0.60;;
49910;SDS011;35803;53.096;5.844;2024-03-29T07:20:35;2.35;;;0.60;;
49910;SDS011;35803;53.096;5.844;2024-03-29T07:23:21;1.92;;;0.50;;
49910;SDS011;35803;53.096;5.844;2024-03-29T07:26:07;0.50;;;0.50;;
49910;SDS011;35803;53.096;5.844;2024-03-29T07:28:53;0.50;;;0.50;;
49910;SDS011;35803;53.096;5.844;2024-03-29T07:31:39;1.15;;;0.47;;
49910;SDS011;35803;53.096;5.844;2024-03-29T07:34:25;0.75;;;0.50;;
49910;SDS011;35803;53.096;5.844;2024-03-29T07:37:11;0.57;;;0.57;;
49910;SDS011;35803;53.096;5.844;2024-03-29T07:40:00;0.85;;;0.50;;
49910;SDS011;35803;53.096;5.844;2024-03-29T07:42:46;1.13;;;0.63;;
49910;SDS011;35803;53.096;5.844;2024-03-29T07:45:31;0.98;;;0.60;;
49910;SDS011;35803;53.096;5.844;2024-03-29T07:48:17;0.55;;;0.50;;
49910;SDS011;35803;53.096;5.844;2024-03-29T07:51:03;2.10;;;0.68;;
49910;SDS011;35803;53.096;5.844;2024-03-29T07:53:49;0.75;;;0.60;;
49910;SDS011;35803;53.096;5.844;2024-03-29T07:56:35;0.75;;;0.60;;
49910;SDS011;35803;53.096;5.844;2024-03-29T07:59:21;0.77;;;0.50;;
49910;SDS011;35803;53.096;5.844;2024-03-29T08:02:07;1.23;;;0.60;;
49910;SDS011;35803;53.096;5.844;2024-03-29T08:04:53;0.73;;;0.40;;
49910;SDS011;35803;53.096;5.844;2024-03-29T08:07:38;2.75;;;0.73;;
49910;SDS011;35803;53.096;5.844;2024-03-29T08:10:24;0.85;;;0.60;;
49910;SDS011;35803;53.096;5.844;2024-03-29T08:13:10;1.08;;;0.60;;
49910;SDS011;35803;53.096;5.844;2024-03-29T08:15:56;0.60;;;0.50;;
49910;SDS011;35803;53.096;5.844;2024-03-29T08:18:45;0.65;;;0.50;;
49910;SDS011;35803;53.096;5.844;2024-03-29T08:21:34;1.60;;;0.73;;
49910;SDS011;35803;53.096;5.844;2024-03-29T08:24:21;0.50;;;0.50;;
49910;SDS011;35803;53.096;5.844;2024-03-29T08:27:07;1.92;;;0.50;;
49910;SDS011;35803;53.096;5.844;2024-03-29T08:29:52;1.63;;;0.68;;
49910;SDS011;35803;53.096;5.844;2024-03-29T08:32:38;0.73;;;0.47;;
49910;SDS011;35803;53.096;5.844;2024-03-29T08:35:24;1.33;;;0.47;;
49910;SDS011;35803;53.096;5.844;2024-03-29T08:38:10;0.60;;;0.60;;
49910;SDS011;35803;53.096;5.844;2024-03-29T08:40:56;0.65;;;0.50;;
49910;SDS011;35803;53.096;5.844;2024-03-29T08:43:41;0.40;;;0.40;;
49910;SDS011;35803;53.096;5.844;2024-03-29T08:46:27;0.95;;;0.47;;
49910;SDS011;35803;53.096;5.844;2024-03-29T08:49:13;0.50;;;0.40;;
49910;SDS011;35803;53.096;5.844;2024-03-29T08:51:59;0.73;;;0.60;;
49910;SDS011;35803;53.096;5.844;2024-03-29T08:54:47;1.70;;;0.55;;
49910;SDS011;35803;53.096;5.844;2024-03-29T08:57:33;0.85;;;0.60;;
49910;SDS011;35803;53.096;5.844;2024-03-29T09:00:18;0.57;;;0.50;;
49910;SDS011;35803;53.096;5.844;2024-03-29T09:03:04;0.90;;;0.50;;
49910;SDS011;35803;53.096;5.844;2024-03-29T09:05:50;1.10;;;0.65;;
49910;SDS011;35803;53.096;5.844;2024-03-29T09:08:36;0.68;;;0.57;;
49910;SDS011;35803;53.096;5.844;2024-03-29T09:11:22;1.52;;;0.70;;
49910;SDS011;35803;53.096;5.844;2024-03-29T09:14:08;0.50;;;0.50;;
49910;SDS011;35803;53.096;5.844;2024-03-29T09:16:55;1.55;;;0.60;;
49910;SDS011;35803;53.096;5.844;2024-03-29T09:19:40;1.00;;;0.60;;
49910;SDS011;35803;53.096;5.844;2024-03-29T09:22:26;0.70;;;0.50;;
49910;SDS011;35803;53.096;5.844;2024-03-29T09:25:12;0.90;;;0.45;;
49910;SDS011;35803;53.096;5.844;2024-03-29T09:28:01;0.47;;;0.40;;
49910;SDS011;35803;53.096;5.844;2024-03-29T09:30:47;0.50;;;0.50;;
49910;SDS011;35803;53.096;5.844;2024-03-29T09:33:33;0.40;;;0.40;;
49910;SDS011;35803;53.096;5.844;2024-03-29T09:36:20;0.55;;;0.50;;
49910;SDS011;35803;53.096;5.844;2024-03-29T09:39:07;0.80;;;0.68;;
49910;SDS011;35803;53.096;5.844;2024-03-29T09:41:54;0.57;;;0.45;;
49910;SDS011;35803;53.096;5.844;2024-03-29T09:44:40;2.45;;;0.70;;
49910;SDS011;35803;53.096;5.844;2024-03-29T09:47:28;0.47;;;0.47;;
49910;SDS011;35803;53.096;5.844;2024-03-29T09:50:15;0.90;;;0.60;;
49910;SDS011;35803;53.096;5.844;2024-03-29T09:53:02;1.00;;;0.50;;
49910;SDS011;35803;53.096;5.844;2024-03-29T09:55:49;0.65;;;0.40;;
49910;SDS011;35803;53.096;5.844;2024-03-29T09:58:36;1.30;;;0.50;;
49910;SDS011;35803;53.096;5.844;2024-03-29T10:01:22;0.60;;;0.60;;
49910;SDS011;35803;53.096;5.844;2024-03-29T10:04:08;0.60;;;0.60;;
49910;SDS011;35803;53.096;5.844;2024-03-29T10:06:54;0.82;;;0.55;;
49910;SDS011;35803;53.096;5.844;2024-03-29T10:09:41;1.55;;;0.60;;
49910;SDS011;35803;53.096;5.844;2024-03-29T10:12:30;0.70;;;0.60;;
49910;SDS011;35803;53.096;5.844;2024-03-29T10:15:17;0.50;;;0.50;;
49910;SDS011;35803;53.096;5.844;2024-03-29T10:18:08;0.95;;;0.60;;
49910;SDS011;35803;53.096;5.844;2024-03-29T10:20:58;0.88;;;0.55;;
49910;SDS011;35803;53.096;5.844;2024-03-29T10:23:48;0.47;;;0.47;;
49910;SDS011;35803;53.096;5.844;2024-03-29T10:26:34;0.80;;;0.60;;
49910;SDS011;35803;53.096;5.844;2024-03-29T10:29:19;0.65;;;0.57;;
49910;SDS011;35803;53.096;5.844;2024-03-29T10:32:05;0.50;;;0.50;;
49910;SDS011;35803;53.096;5.844;2024-03-29T10:34:51;0.50;;;0.50;;
49910;SDS011;35803;53.096;5.844;2024-03-29T10:37:37;0.85;;;0.40;;
49910;SDS011;35803;53.096;5.844;2024-03-29T10:40:27;1.40;;;0.68;;
49910;SDS011;35803;53.096;5.844;2024-03-29T10:43:13;1.40;;;0.70;;
49910;SDS011;35803;53.096;5.844;2024-03-29T10:45:59;0.82;;;0.50;;
49910;SDS011;35803;53.096;5.844;2024-03-29T10:48:46;0.60;;;0.60;;
49910;SDS011;35803;53.096;5.844;2024-03-29T10:51:33;0.85;;;0.57;;
49910;SDS011;35803;53.096;5.844;2024-03-29T10:54:19;0.50;;;0.50;;
49910;SDS011;35803;53.096;5.844;2024-03-29T10:57:06;0.50;;;0.50;;
49910;SDS011;35803;53.096;5.844;2024-03-29T11:06:04;0.50;;;0.50;;
49910;SDS011;35803;53.096;5.844;2024-03-29T11:08:50;0.60;;;0.60;;
49910;SDS011;35803;53.096;5.844;2024-03-29T11:11:37;1.08;;;0.60;;
49910;SDS011;35803;53.096;5.844;2024-03-29T11:14:27;0.60;;;0.60;;
49910;SDS011;35803;53.096;5.844;2024-03-29T11:17:17;0.50;;;0.50;;
49910;SDS011;35803;53.096;5.844;2024-03-29T11:20:04;0.95;;;0.57;;
49910;SDS011;35803;53.096;5.844;2024-03-29T11:22:50;2.10;;;0.57;;
49910;SDS011;35803;53.096;5.844;2024-03-29T11:25:43;0.65;;;0.60;;
49910;SDS011;35803;53.096;5.844;2024-03-29T11:28:31;0.98;;;0.80;;
49910;SDS011;35803;53.096;5.844;2024-03-29T11:31:23;0.60;;;0.60;;
49910;SDS011;35803;53.096;5.844;2024-03-29T11:34:10;1.73;;;0.70;;
49910;SDS011;35803;53.096;5.844;2024-03-29T11:36:55;0.85;;;0.77;;
49910;SDS011;35803;53.096;5.844;2024-03-29T11:39:51;0.82;;;0.60;;
49910;SDS011;35803;53.096;5.844;2024-03-29T11:42:46;0.88;;;0.73;;
49910;SDS011;35803;53.096;5.844;2024-03-29T11:48:20;1.67;;;0.65;;
49910;SDS011;35803;53.096;5.844;2024-03-29T11:51:10;1.83;;;0.60;;
49910;SDS011;35803;53.096;5.844;2024-03-29T11:53:59;1.85;;;0.60;;
49910;SDS011;35803;53.096;5.844;2024-03-29T11:56:45;0.68;;;0.50;;
49910;SDS011;35803;53.096;5.844;2024-03-29T11:59:33;0.60;;;0.50;;
49910;SDS011;35803;53.096;5.844;2024-03-29T12:02:18;1.20;;;0.60;;
49910;SDS011;35803;53.096;5.844;2024-03-29T12:05:07;0.70;;;0.63;;
49910;SDS011;35803;53.096;5.844;2024-03-29T12:07:56;0.77;;;0.50;;
49910;SDS011;35803;53.096;5.844;2024-03-29T12:10:43;1.13;;;0.60;;
49910;SDS011;35803;53.096;5.844;2024-03-29T12:13:29;1.25;;;0.50;;
49910;SDS011;35803;53.096;5.844;2024-03-29T12:16:15;1.33;;;0.52;;
49910;SDS011;35803;53.096;5.844;2024-03-29T12:19:00;0.77;;;0.50;;
49910;SDS011;35803;53.096;5.844;2024-03-29T12:21:46;0.98;;;0.60;;
49910;SDS011;35803;53.096;5.844;2024-03-29T12:24:32;0.50;;;0.50;;
49910;SDS011;35803;53.096;5.844;2024-03-29T12:27:18;0.98;;;0.52;;
49910;SDS011;35803;53.096;5.844;2024-03-29T12:30:05;0.57;;;0.47;;
49910;SDS011;35803;53.096;5.844;2024-03-29T12:33:05;0.77;;;0.60;;
49910;SDS011;35803;53.096;5.844;2024-03-29T12:35:52;0.50;;;0.50;;
49910;SDS011;35803;53.096;5.844;2024-03-29T12:38:39;0.65;;;0.65;;
49910;SDS011;35803;53.096;5.844;2024-03-29T12:41:28;2.60;;;0.65;;
49910;SDS011;35803;53.096;5.844;2024-03-29T12:44:14;0.77;;;0.60;;
49910;SDS011;35803;53.096;5.844;2024-03-29T12:47:00;1.52;;;0.73;;
49910;SDS011;35803;53.096;5.844;2024-03-29T12:49:47;0.65;;;0.63;;
49910;SDS011;35803;53.096;5.844;2024-03-29T12:52:37;1.45;;;0.60;;
49910;SDS011;35803;53.096;5.844;2024-03-29T12:55:23;0.70;;;0.70;;
49910;SDS011;35803;53.096;5.844;2024-03-29T12:58:10;1.42;;;0.60;;
49910;SDS011;35803;53.096;5.844;2024-03-29T13:01:01;1.48;;;0.90;;
49910;SDS011;35803;53.096;5.844;2024-03-29T13:03:49;0.80;;;0.73;;
49910;SDS011;35803;53.096;5.844;2024-03-29T13:06:34;0.60;;;0.60;;
49910;SDS011;35803;53.096;5.844;2024-03-29T13:09:20;2.65;;;0.90;;
49910;SDS011;35803;53.096;5.844;2024-03-29T13:12:06;2.53;;;0.88;;
49910;SDS011;35803;53.096;5.844;2024-03-29T13:14:52;0.85;;;0.82;;
49910;SDS011;35803;53.096;5.844;2024-03-29T13:17:38;0.55;;;0.55;;
49910;SDS011;35803;53.096;5.844;2024-03-29T13:20:24;0.68;;;0.68;;
49910;SDS011;35803;53.096;5.844;2024-03-29T13:23:12;1.65;;;0.88;;
49910;SDS011;35803;53.096;5.844;2024-03-29T13:25:58;0.70;;;0.70;;
49910;SDS011;35803;53.096;5.844;2024-03-29T13:28:45;1.20;;;0.80;;
49910;SDS011;35803;53.096;5.844;2024-03-29T13:31:31;2.10;;;1.20;;
49910;SDS011;35803;53.096;5.844;2024-03-29T13:34:18;1.33;;;1.23;;
49910;SDS011;35803;53.096;5.844;2024-03-29T13:37:04;1.60;;;1.25;;
49910;SDS011;35803;53.096;5.844;2024-03-29T13:39:49;1.10;;;1.00;;
49910;SDS011;35803;53.096;5.844;2024-03-29T13:42:36;1.98;;;1.20;;
49910;SDS011;35803;53.096;5.844;2024-03-29T13:45:22;1.10;;;1.00;;
49910;SDS011;35803;53.096;5.844;2024-03-29T13:48:08;2.05;;;1.20;;
49910;SDS011;35803;53.096;5.844;2024-03-29T13:50:53;2.50;;;1.30;;
49910;SDS011;35803;53.096;5.844;2024-03-29T13:53:41;2.10;;;1.23;;
49910;SDS011;35803;53.096;5.844;2024-03-29T13:56:27;2.10;;;1.58;;
49910;SDS011;35803;53.096;5.844;2024-03-29T13:59:13;1.52;;;1.42;;
49910;SDS011;35803;53.096;5.844;2024-03-29T14:01:58;2.38;;;1.60;;
49910;SDS011;35803;53.096;5.844;2024-03-29T14:04:44;2.40;;;1.50;;
49910;SDS011;35803;53.096;5.844;2024-03-29T14:07:31;2.00;;;1.55;;
49910;SDS011;35803;53.096;5.844;2024-03-29T14:10:16;1.27;;;1.17;;
49910;SDS011;35803;53.096;5.844;2024-03-29T14:13:03;1.90;;;1.45;;
49910;SDS011;35803;53.096;5.844;2024-03-29T14:15:50;2.97;;;1.73;;
49910;SDS011;35803;53.096;5.844;2024-03-29T14:18:36;2.30;;;1.60;;
49910;SDS011;35803;53.096;5.844;2024-03-29T14:21:22;2.53;;;1.85;;
49910;SDS011;35803;53.096;5.844;2024-03-29T14:24:08;2.40;;;2.20;;
49910;SDS011;35803;53.096;5.844;2024-03-29T14:26:54;2.67;;;1.90;;
49910;SDS011;35803;53.096;5.844;2024-03-29T14:29:40;2.88;;;1.90;;
49910;SDS011;35803;53.096;5.844;2024-03-29T14:32:26;2.83;;;1.98;;
49910;SDS011;35803;53.096;5.844;2024-03-29T14:35:12;2.15;;;1.73;;
49910;SDS011;35803;53.096;5.844;2024-03-29T14:37:58;1.73;;;1.60;;
49910;SDS011;35803;53.096;5.844;2024-03-29T14:40:44;4.68;;;2.10;;
49910;SDS011;35803;53.096;5.844;2024-03-29T14:43:31;2.17;;;1.67;;
49910;SDS011;35803;53.096;5.844;2024-03-29T14:46:17;1.90;;;1.70;;
49910;SDS011;35803;53.096;5.844;2024-03-29T14:49:03;1.95;;;1.80;;
49910;SDS011;35803;53.096;5.844;2024-03-29T14:51:50;1.63;;;1.50;;
49910;SDS011;35803;53.096;5.844;2024-03-29T14:54:36;4.03;;;1.83;;
49910;SDS011;35803;53.096;5.844;2024-03-29T14:57:22;2.20;;;1.67;;
49910;SDS011;35803;53.096;5.844;2024-03-29T15:00:07;1.67;;;1.40;;
49910;SDS011;35803;53.096;5.844;2024-03-29T15:02:56;2.67;;;1.40;;
49910;SDS011;35803;53.096;5.844;2024-03-29T15:05:42;1.50;;;1.40;;
49910;SDS011;35803;53.096;5.844;2024-03-29T15:08:28;1.65;;;1.30;;
49910;SDS011;35803;53.096;5.844;2024-03-29T15:11:13;2.78;;;1.42;;
49910;SDS011;35803;53.096;5.844;2024-03-29T15:13:59;1.42;;;1.33;;
49910;SDS011;35803;53.096;5.844;2024-03-29T15:16:45;1.40;;;1.30;;
49910;SDS011;35803;53.096;5.844;2024-03-29T15:19:32;1.70;;;1.60;;
49910;SDS011;35803;53.096;5.844;2024-03-29T15:22:18;1.70;;;1.60;;
49910;SDS011;35803;53.096;5.844;2024-03-29T15:25:04;2.60;;;1.60;;
49910;SDS011;35803;53.096;5.844;2024-03-29T15:27:50;2.67;;;1.80;;
49910;SDS011;35803;53.096;5.844;2024-03-29T15:30:54;2.85;;;1.90;;
49910;SDS011;35803;53.096;5.844;2024-03-29T15:33:43;1.90;;;1.80;;
49910;SDS011;35803;53.096;5.844;2024-03-29T15:36:29;2.85;;;1.83;;
49910;SDS011;35803;53.096;5.844;2024-03-29T15:39:15;3.10;;;1.92;;
49910;SDS011;35803;53.096;5.844;2024-03-29T15:42:05;2.47;;;1.75;;
49910;SDS011;35803;53.096;5.844;2024-03-29T15:44:50;2.20;;;2.00;;
49910;SDS011;35803;53.096;5.844;2024-03-29T15:47:36;3.53;;;2.30;;
49910;SDS011;35803;53.096;5.844;2024-03-29T15:50:22;2.63;;;2.20;;
49910;SDS011;35803;53.096;5.844;2024-03-29T15:53:07;2.63;;;2.28;;
49910;SDS011;35803;53.096;5.844;2024-03-29T15:55:53;2.38;;;2.17;;
49910;SDS011;35803;53.096;5.844;2024-03-29T15:58:39;3.10;;;2.80;;
49910;SDS011;35803;53.096;5.844;2024-03-29T16:01:25;3.17;;;2.88;;
49910;SDS011;35803;53.096;5.844;2024-03-29T16:04:11;3.20;;;2.90;;
49910;SDS011;35803;53.096;5.844;2024-03-29T16:06:56;3.50;;;2.92;;
49910;SDS011;35803;53.096;5.844;2024-03-29T16:09:42;3.50;;;2.92;;
49910;SDS011;35803;53.096;5.844;2024-03-29T16:12:28;3.25;;;2.95;;
49910;SDS011;35803;53.096;5.844;2024-03-29T16:15:13;4.05;;;3.30;;
49910;SDS011;35803;53.096;5.844;2024-03-29T16:17:59;3.45;;;3.15;;
49910;SDS011;35803;53.096;5.844;2024-03-29T16:20:45;4.18;;;3.40;;
49910;SDS011;35803;53.096;5.844;2024-03-29T16:23:31;3.85;;;2.95;;
49910;SDS011;35803;53.096;5.844;2024-03-29T16:26:18;4.63;;;3.03;;
49910;SDS011;35803;53.096;5.844;2024-03-29T16:29:04;3.25;;;3.03;;
49910;SDS011;35803;53.096;5.844;2024-03-29T16:31:55;3.28;;;2.70;;
49910;SDS011;35803;53.096;5.844;2024-03-29T16:34:40;2.92;;;2.40;;
49910;SDS011;35803;53.096;5.844;2024-03-29T16:37:27;3.40;;;2.53;;
49910;SDS011;35803;53.096;5.844;2024-03-29T16:40:13;3.00;;;2.30;;
49910;SDS011;35803;53.096;5.844;2024-03-29T16:42:59;2.65;;;2.40;;
49910;SDS011;35803;53.096;5.844;2024-03-29T16:45:44;2.90;;;2.40;;
49910;SDS011;35803;53.096;5.844;2024-03-29T16:48:32;4.32;;;2.25;;
49910;SDS011;35803;53.096;5.844;2024-03-29T16:51:18;3.88;;;2.33;;
49910;SDS011;35803;53.096;5.844;2024-03-29T16:54:04;3.83;;;2.75;;